Time;durP1;ratioP1;P1;durP2;ratioP2;P2;SDS_P1;SDS_P2;PMS_P1;PMS_P2;Temp;Humidity;BMP_temperature;BMP_pressure;BME280_temperature;BME280_humidity;BME280_pressure;Samples;Min_cycle;Max_cycle;Signal;HPM_P1;HPM_P2
2023/10/13 00:01:58;;;;;;;21.43;7.17;;;;;;;-144.30;71.87;85724.47;5093163;28;20192;-56
2023/10/13 00:04:25;;;;;;;8.87;5.97;;;;;;;-144.30;72.05;85694.63;5093436;28;20281;-55
2023/10/13 00:06:53;;;;;;;7.80;6.40;;;;;;;-144.30;72.28;85722.47;5090457;28;20219;-55
2023/10/13 00:09:25;;;;;;;12.03;6.63;;;;;;;-144.30;72.96;85776.16;5086063;28;20282;-55
2023/10/13 00:11:53;;;;;;;10.33;6.03;;;;;;;-144.30;73.56;85750.31;5099838;28;20202;-55
2023/10/13 00:14:22;;;;;;;8.63;6.63;;;;;;;-144.30;73.88;85756.28;5092764;28;20215;-56
2023/10/13 00:17:03;;;;;;;7.13;6.43;;;;;;;-144.30;74.31;85746.31;5093086;28;20199;-55
2023/10/13 00:19:38;;;;;;;11.17;6.63;;;;;;;-144.30;74.60;85718.50;5092701;28;20717;-59
2023/10/13 00:22:12;;;;;;;7.07;6.37;;;;;;;-144.30;74.77;85770.19;5092966;28;20191;-59
2023/10/13 00:24:45;;;;;;;9.47;7.30;;;;;;;-144.30;75.06;85742.34;5092701;28;20226;-59
2023/10/13 00:27:27;;;;;;;11.20;6.43;;;;;;;-144.30;75.30;85776.16;5092720;28;20219;-59
2023/10/13 00:30:17;;;;;;;14.27;6.90;;;;;;;-144.30;75.07;85764.22;5092809;28;20195;-59
2023/10/13 00:32:44;;;;;;;9.00;6.67;;;;;;;-144.30;75.45;85780.13;5092018;28;20191;-58
2023/10/13 00:35:24;;;;;;;7.77;6.77;;;;;;;-144.30;75.47;85802.00;5089942;28;20211;-57
2023/10/13 00:37:53;;;;;;;10.53;7.47;;;;;;;-144.30;75.64;85782.13;5092428;28;20289;-59
2023/10/13 00:40:42;;;;;;;16.10;6.70;;;;;;;-144.30;75.33;85772.19;5092729;28;20570;-59
2023/10/13 00:45:56;;;;;;;12.13;6.30;;;;;;;-144.30;75.40;85738.38;5091686;28;20218;-60
2023/10/13 00:48:28;;;;;;;10.27;6.30;;;;;;;-144.30;75.65;85778.13;5092253;28;20199;-59
2023/10/13 00:51:02;;;;;;;9.57;6.60;;;;;;;-144.30;75.47;85782.13;5092551;28;20754;-58
2023/10/13 00:53:30;;;;;;;9.23;7.00;;;;;;;-144.30;75.65;85738.38;5092380;28;20667;-59
2023/10/13 00:55:56;;;;;;;7.60;6.80;;;;;;;-144.30;75.90;85780.13;5092418;28;20675;-61
2023/10/13 00:58:27;;;;;;;13.53;7.20;;;;;;;-144.30;75.85;85798.03;5092035;28;20264;-59
2023/10/13 01:00:56;;;;;;;7.80;7.00;;;;;;;-144.30;75.64;85792.06;5092536;28;20580;-58
2023/10/13 01:03:26;;;;;;;11.53;7.20;;;;;;;-144.30;75.35;85813.94;5091955;28;20280;-59
2023/10/13 01:05:55;;;;;;;11.67;6.60;;;;;;;-144.30;75.62;85796.03;5088983;28;20320;-59
2023/10/13 01:08:37;;;;;;;8.17;7.30;;;;;;;-144.30;75.96;85798.03;5092602;28;20245;-58
2023/10/13 01:11:06;;;;;;;10.07;6.90;;;;;;;-144.30;76.04;85798.03;5093238;28;20195;-59
2023/10/13 01:13:36;;;;;;;10.00;6.90;;;;;;;-144.30;76.00;85835.78;5096590;28;20198;-59
2023/10/13 01:16:02;;;;;;;12.23;7.40;;;;;;;-144.30;75.98;85833.81;5091783;28;20665;-58
2023/10/13 01:18:29;;;;;;;9.43;6.80;;;;;;;-144.30;76.11;85825.84;5091569;28;20231;-55
2023/10/13 01:20:58;;;;;;;9.70;6.67;;;;;;;-144.30;75.93;85813.94;5091740;28;20256;-54
2023/10/13 01:23:28;;;;;;;13.87;7.60;;;;;;;-144.30;75.91;85829.84;5092056;28;20683;-56
2023/10/13 01:25:56;;;;;;;9.27;6.43;;;;;;;-144.30;75.89;85817.91;5091602;28;20195;-55
2023/10/13 01:28:24;;;;;;;9.10;7.53;;;;;;;-144.30;75.95;85819.88;5091682;28;20261;-55
2023/10/13 01:30:50;;;;;;;7.73;6.83;;;;;;;-144.30;75.92;85815.91;5091535;28;20633;-54
2023/10/13 01:33:17;;;;;;;9.43;6.83;;;;;;;-144.30;75.63;85841.75;5091709;28;20210;-56
2023/10/13 01:35:47;;;;;;;10.23;6.37;;;;;;;-144.30;75.64;85811.94;5088740;28;20203;-55
2023/10/13 01:38:14;;;;;;;10.23;6.93;;;;;;;-144.30;75.74;85835.78;5091954;28;20662;-55
2023/10/13 01:40:43;;;;;;;7.50;6.70;;;;;;;-144.30;75.96;85821.88;5091181;28;20199;-56
2023/10/13 01:43:10;;;;;;;8.00;6.57;;;;;;;-144.30;75.88;85805.97;5098430;28;20690;-56
2023/10/13 01:45:39;;;;;;;13.23;6.57;;;;;;;-144.30;75.67;85790.06;5090523;28;20206;-57
2023/10/13 01:48:07;;;;;;;10.67;6.37;;;;;;;-144.30;75.36;85778.13;5091224;28;20207;-54
2023/10/13 01:50:36;;;;;;;7.50;6.20;;;;;;;-144.30;75.30;85853.69;5090951;28;20195;-56
2023/10/13 01:53:11;;;;;;;10.83;6.63;;;;;;;-144.30;75.58;85855.69;5091343;28;20647;-55
2023/10/13 01:55:42;;;;;;;9.77;6.17;;;;;;;-144.30;75.59;85835.78;5091192;28;20294;-55
2023/10/13 01:58:15;;;;;;;10.70;6.67;;;;;;;-144.30;75.39;85760.25;5091009;28;20203;-56
2023/10/13 02:00:42;;;;;;;7.53;6.63;;;;;;;-144.30;75.37;85798.03;5090811;28;20203;-55
2023/10/13 02:03:15;;;;;;;10.13;6.77;;;;;;;-144.30;76.15;85807.97;5090885;28;20199;-58
2023/10/13 02:05:47;;;;;;;9.77;6.87;;;;;;;-144.30;76.25;85863.63;5087986;28;20582;-58
2023/10/13 02:08:17;;;;;;;8.40;7.30;;;;;;;-144.30;76.57;85837.78;5091564;28;20698;-59
2023/10/13 02:10:44;;;;;;;15.03;7.10;;;;;;;-144.30;76.78;85835.78;5090748;28;20277;-59
2023/10/13 02:13:17;;;;;;;8.27;7.40;;;;;;;-144.30;76.79;85794.03;5097570;28;20203;-59
2023/10/13 02:15:44;;;;;;;12.60;8.07;;;;;;;-144.30;76.71;85885.50;5090575;28;20226;-59
2023/10/13 02:18:20;;;;;;;10.57;8.50;;;;;;;-144.30;76.84;85849.72;5090550;28;20239;-55
2023/10/13 02:20:54;;;;;;;16.17;9.57;;;;;;;-144.30;77.17;85841.75;5090607;28;20199;-55
2023/10/13 02:23:21;;;;;;;17.33;10.20;;;;;;;-144.30;77.07;85837.78;5090738;28;20203;-54
2023/10/13 02:25:52;;;;;;;16.13;10.17;;;;;;;-144.30;77.70;85847.72;5090581;28;20199;-56
2023/10/13 02:28:28;;;;;;;15.70;9.97;;;;;;;-144.30;77.50;85879.53;5090950;28;20234;-56
2023/10/13 02:30:53;;;;;;;20.70;9.83;;;;;;;-144.30;77.86;85865.63;5090705;28;20191;-55
2023/10/13 02:33:21;;;;;;;14.63;9.03;;;;;;;-144.30;78.26;85855.69;5091064;28;20686;-54
2023/10/13 02:35:53;;;;;;;11.30;7.57;;;;;;;-144.30;78.41;85887.50;5087551;28;20211;-55
2023/10/13 02:38:34;;;;;;;13.73;7.37;;;;;;;-144.30;78.15;85897.44;5083664;28;20200;-56
2023/10/13 02:41:05;;;;;;;10.07;7.20;;;;;;;-144.30;77.91;85875.56;5091473;28;20317;-54
2023/10/13 02:43:35;;;;;;;11.20;8.13;;;;;;;-144.30;78.04;85851.69;5095439;28;20222;-56
2023/10/13 02:46:02;;;;;;;15.80;7.10;;;;;;;-144.30;77.48;85825.84;5090085;28;20670;-59
2023/10/13 02:48:39;;;;;;;9.70;7.13;;;;;;;-144.30;77.61;85833.81;5090297;28;20205;-59
2023/10/13 02:51:15;;;;;;;9.47;7.10;;;;;;;-144.30;77.46;85849.72;5086227;28;20256;-59
2023/10/13 02:53:42;;;;;;;12.57;7.20;;;;;;;-144.30;77.94;85889.47;5087083;28;20561;-58
2023/10/13 02:56:08;;;;;;;7.90;7.10;;;;;;;-144.30;78.23;85901.41;5089149;28;20199;-58
2023/10/13 02:58:39;;;;;;;8.60;7.70;;;;;;;-144.30;78.18;85879.53;5089627;28;20282;-58
2023/10/13 03:01:16;;;;;;;14.40;7.40;;;;;;;-144.30;77.79;85853.69;5092472;28;20207;-58
2023/10/13 03:03:47;;;;;;;12.60;7.10;;;;;;;-144.30;77.62;85869.59;5089708;28;20226;-57
2023/10/13 03:06:14;;;;;;;8.97;7.43;;;;;;;-144.30;77.26;85835.78;5089481;28;20693;-59
2023/10/13 03:08:42;;;;;;;10.43;7.03;;;;;;;-144.30;76.87;85821.88;5091628;28;20561;-58
2023/10/13 03:11:09;;;;;;;9.43;6.90;;;;;;;-144.30;77.36;85841.75;5090027;28;20202;-58
2023/10/13 03:13:43;;;;;;;9.17;7.43;;;;;;;-144.30;77.86;85897.44;5086890;28;20290;-58
2023/10/13 03:16:15;;;;;;;10.20;7.07;;;;;;;-144.30;77.91;85897.44;5090283;28;20195;-58
2023/10/13 03:18:53;;;;;;;7.57;6.83;;;;;;;-144.30;77.76;85857.66;5089443;28;20231;-55
2023/10/13 03:21:28;;;;;;;11.10;7.43;;;;;;;-144.30;77.67;85881.53;5090127;28;20195;-55
2023/10/13 03:23:56;;;;;;;16.90;6.80;;;;;;;-144.30;78.26;85907.38;5089104;28;20209;-55
2023/10/13 03:26:22;;;;;;;8.60;7.30;;;;;;;-144.30;78.82;85881.53;5087852;28;20214;-55
2023/10/13 03:28:53;;;;;;;11.97;7.40;;;;;;;-144.30;79.10;85901.41;5089941;28;20205;-56
2023/10/13 03:31:27;;;;;;;13.13;7.13;;;;;;;-144.30;79.43;85853.69;5089706;28;20206;-55
2023/10/13 03:33:59;;;;;;;9.87;6.47;;;;;;;-144.30;79.27;85831.81;5089488;28;20705;-55
2023/10/13 03:39:11;;;;;;;10.80;6.93;;;;;;;-144.30;78.95;85897.44;5089530;28;20653;-57
2023/10/13 03:41:40;;;;;;;16.87;8.00;;;;;;;-144.30;78.83;85879.53;5094183;28;20211;-55
2023/10/13 03:44:13;;;;;;;14.53;7.50;;;;;;;-144.30;78.74;85905.38;5089874;28;20641;-56
2023/10/13 03:46:42;;;;;;;9.50;6.50;;;;;;;-144.30;79.15;85899.41;5076368;28;20255;-57
2023/10/13 03:49:12;;;;;;;7.90;7.17;;;;;;;-144.30;79.35;85861.63;5077664;28;20249;-58
2023/10/13 03:51:40;;;;;;;13.37;7.97;;;;;;;-144.30;79.55;85851.69;5084908;28;20604;-58
2023/10/13 03:54:08;;;;;;;10.93;7.47;;;;;;;-144.30;79.65;85901.41;5088768;28;20283;-58
2023/10/13 03:56:39;;;;;;;8.10;7.30;;;;;;;-144.30;79.79;85883.50;5089668;28;20587;-58
2023/10/13 03:59:17;;;;;;;14.77;8.00;;;;;;;-144.30;80.11;85877.53;5089762;28;20642;-59
2023/10/13 04:01:45;;;;;;;10.17;7.10;;;;;;;-144.30;80.15;85905.38;5084635;28;20210;-58
2023/10/13 04:04:14;;;;;;;15.47;6.77;;;;;;;-144.30;80.57;85905.38;5088928;28;20643;-58
2023/10/13 04:07:12;;;;;;;13.27;7.57;;;;;;;-144.30;81.00;85919.31;5088768;28;20223;-58
2023/10/13 04:10:10;;;;;;;7.63;6.83;;;;;;;-144.30;80.99;85837.78;5093173;28;20199;-57
2023/10/13 04:15:27;;;;;;;13.73;7.97;;;;;;;-144.30;80.78;85901.41;5092811;28;20191;-57
2023/10/13 04:17:54;;;;;;;13.47;7.20;;;;;;;-144.30;80.65;85867.59;5092855;28;20250;-57
2023/10/13 04:20:38;;;;;;;11.50;7.53;;;;;;;-144.30;80.58;85869.59;5085919;28;20203;-58
2023/10/13 04:23:18;;;;;;;12.80;7.67;;;;;;;-144.30;80.53;85897.44;5092606;28;20191;-58
2023/10/13 04:26:09;;;;;;;9.40;7.27;;;;;;;-144.30;80.46;85909.34;5091935;28;20686;-57
2023/10/13 04:28:37;;;;;;;11.37;7.63;;;;;;;-144.30;80.31;85889.47;5092038;28;20698;-54
2023/10/13 04:31:24;;;;;;;12.93;7.90;;;;;;;-144.30;80.29;85895.44;5092577;28;20231;-55
2023/10/13 04:33:52;;;;;;;12.67;8.30;;;;;;;-144.30;80.69;85889.47;5092943;28;20195;-55
2023/10/13 04:36:36;;;;;;;10.03;7.77;;;;;;;-144.30;80.72;85891.47;5092621;28;20207;-58
2023/10/13 04:39:09;;;;;;;13.70;8.83;;;;;;;-144.30;80.65;85903.41;5092595;28;20620;-59
2023/10/13 04:41:39;;;;;;;19.13;8.93;;;;;;;-144.30;79.98;85841.75;5092427;28;20199;-58
2023/10/13 04:47:07;;;;;;;11.77;8.30;;;;;;;-144.30;79.57;85903.41;5087450;28;20214;-54
2023/10/13 04:49:49;;;;;;;17.70;8.67;;;;;;;-144.30;79.94;85867.59;5086796;28;20207;-56
2023/10/13 04:52:38;;;;;;;14.50;9.33;;;;;;;-144.30;79.60;85893.44;5090249;28;20207;-55
2023/10/13 04:58:00;;;;;;;16.40;7.97;;;;;;;-144.30;79.69;85925.25;5090899;28;20194;-56
2023/10/13 05:44:32;;;;;;;10.70;7.90;;;;;;;-144.30;78.17;85859.66;5092345;28;20198;-58
2023/10/13 05:45:22;;;;;;;16.17;7.97;;;;;;;-144.30;37.17;84255.53;5091124;28;20613;-55
2023/10/13 05:48:01;;;;;;;17.30;7.47;;;;;;;-144.30;36.09;84164.13;5090875;28;20289;-56
2023/10/13 06:29:01;;;;;;;32.35;9.90;;;;;;;-144.30;27.04;82765.41;5088245;28;20206;-56
2023/10/13 06:31:28;;;;;;;21.10;11.18;;;;;;;-144.30;26.49;82495.25;5085329;28;20218;-57
2023/10/13 06:33:55;;;;;;;22.70;10.05;;;;;;;-144.30;25.69;82258.91;5089319;28;20227;-56
2023/10/13 06:36:22;;;;;;;16.63;8.85;;;;;;;-144.30;25.83;82870.69;5089790;28;20248;-55
2023/10/13 06:39:20;;;;;;;13.18;7.65;;;;;;;-144.30;25.88;82487.31;5087027;28;20201;-58
2023/10/13 06:41:44;;;;;;;15.57;7.30;;;;;;;-144.30;25.88;82499.22;5089829;28;20184;-58
2023/10/13 06:44:15;;;;;;;17.70;8.13;;;;;;;-144.30;26.37;82574.72;5090114;28;20205;-58
2023/10/13 06:46:43;;;;;;;11.35;5.80;;;;;;;-144.30;26.61;82783.28;5090375;28;20217;-58
2023/10/13 06:49:12;;;;;;;14.07;7.05;;;;;;;-144.30;27.86;83184.56;5090275;28;20199;-56
2023/10/13 06:51:39;;;;;;;9.80;7.22;;;;;;;-144.30;29.37;83500.47;5090070;28;20704;-56
2023/10/13 06:54:19;;;;;;;14.27;5.75;;;;;;;-144.30;30.96;83768.69;5090246;28;20697;-56
2023/10/13 06:56:51;;;;;;;8.10;6.63;;;;;;;-144.30;32.65;83955.47;5090071;28;20198;-58
2023/10/13 06:59:18;;;;;;;11.52;6.20;;;;;;;-144.30;34.38;84140.28;5090311;28;20495;-58
2023/10/13 07:01:48;;;;;;;10.93;5.40;;;;;;;-144.30;35.78;84333.06;5090097;28;20571;-59
2023/10/13 07:04:15;;;;;;;10.25;5.78;;;;;;;-144.30;37.62;84472.16;5089824;28;20198;-58
2023/10/13 07:06:49;;;;;;;10.38;5.60;;;;;;;-144.30;38.87;84557.63;5089950;28;20195;-60
2023/10/13 07:09:39;;;;;;;8.45;5.60;;;;;;;-144.30;39.98;84653.03;5089736;28;20194;-59
2023/10/13 07:12:16;;;;;;;10.75;6.15;;;;;;;-144.30;41.37;84657.00;5090231;28;20305;-59
2023/10/13 07:14:51;;;;;;;12.93;6.78;;;;;;;-144.30;42.66;84768.31;5090023;28;20198;-59
2023/10/13 07:17:23;;;;;;;11.05;6.07;;;;;;;-144.30;43.91;84831.91;5089921;28;20290;-58
2023/10/13 07:19:54;;;;;;;8.13;6.18;;;;;;;-144.30;44.98;84895.50;5089722;28;20258;-58
2023/10/13 07:22:23;;;;;;;14.13;6.72;;;;;;;-144.30;45.87;84955.13;5089807;28;20191;-59
2023/10/13 07:24:52;;;;;;;13.52;6.88;;;;;;;-144.30;46.68;84881.59;5089861;28;20286;-60
2023/10/13 07:27:24;;;;;;;15.48;7.22;;;;;;;-144.30;47.35;84963.09;5090107;28;20245;-59
2023/10/13 07:30:06;;;;;;;13.07;6.55;;;;;;;-144.30;47.59;84994.91;5090046;28;20199;-54
2023/10/13 07:32:33;;;;;;;15.80;6.90;;;;;;;-144.30;47.85;84961.09;5090053;28;20226;-56
2023/10/13 07:35:10;;;;;;;11.38;6.68;;;;;;;-144.30;47.65;84933.28;5089801;28;20218;-56
2023/10/13 07:37:36;;;;;;;7.05;6.30;;;;;;;-144.30;47.51;84935.25;5089984;28;20191;-57
2023/10/13 07:40:22;;;;;;;10.48;6.35;;;;;;;-144.30;47.43;84961.09;5089689;28;20206;-56
2023/10/13 07:42:50;;;;;;;9.95;5.35;;;;;;;-144.30;47.44;84907.44;5090342;28;20194;-59
2023/10/13 07:45:32;;;;;;;13.18;6.03;;;;;;;-144.30;47.91;85018.75;5093895;28;20741;-60
2023/10/13 07:48:05;;;;;;;15.10;5.75;;;;;;;-144.30;48.26;85038.63;5088621;28;20272;-58
2023/10/13 07:50:33;;;;;;;6.00;5.40;;;;;;;-144.30;48.02;84957.13;5093179;28;20203;-58
2023/10/13 07:53:04;;;;;;;11.35;5.75;;;;;;;-144.30;47.39;84955.13;5092917;28;20199;-60
2023/10/13 07:55:34;;;;;;;7.78;5.90;;;;;;;-144.30;47.04;84907.44;5081305;28;20203;-58
2023/10/13 07:58:07;;;;;;;11.60;5.88;;;;;;;-144.30;46.93;84935.25;5105111;28;20199;-59
2023/10/13 08:00:46;;;;;;;10.45;6.43;;;;;;;-144.30;46.81;84947.19;5093318;28;20199;-59
2023/10/13 08:03:34;;;;;;;8.68;6.35;;;;;;;-144.30;46.88;84935.25;5091852;28;20203;-59
2023/10/13 08:06:06;;;;;;;12.55;6.10;;;;;;;-144.30;46.68;84935.25;5093153;28;20199;-59
2023/10/13 08:08:38;;;;;;;11.55;6.32;;;;;;;-144.30;47.39;84941.22;5092888;28;20226;-58
2023/10/13 08:11:11;;;;;;;12.02;6.68;;;;;;;-144.30;47.18;84909.41;5092645;28;20201;-58
2023/10/13 08:13:46;;;;;;;11.57;6.47;;;;;;;-144.30;47.26;84923.34;5092847;28;20199;-58
2023/10/13 08:16:20;;;;;;;12.52;5.97;;;;;;;-144.30;47.20;84935.25;5093613;28;20682;-59
2023/10/13 08:18:49;;;;;;;10.73;6.30;;;;;;;-144.30;46.87;84927.31;5092430;28;20233;-59
2023/10/13 08:21:19;;;;;;;15.23;6.93;;;;;;;-144.30;46.97;84937.25;5087945;28;20203;-59
2023/10/13 08:23:59;;;;;;;13.77;7.35;;;;;;;-144.30;46.51;84895.50;5092449;28;20198;-56
2023/10/13 08:26:56;;;;;;;10.63;6.68;;;;;;;-144.30;46.67;84893.53;5072344;28;20200;-56
2023/10/13 08:32:23;;;;;;;10.93;6.72;;;;;;;-144.30;46.11;84851.78;5030324;28;20588;-58
2023/10/13 08:35:22;;;;;;;18.13;6.00;;;;;;;-144.30;46.13;84867.69;5064500;28;20202;-57
2023/10/13 08:37:59;;;;;;;8.75;6.78;;;;;;;-144.30;46.16;84871.66;5072390;28;20192;-56
2023/10/13 08:43:13;;;;;;;16.02;6.20;;;;;;;-144.30;45.40;84885.56;5072246;28;20717;-56
2023/10/13 08:45:58;;;;;;;11.02;6.13;;;;;;;-144.30;45.49;84879.59;5072223;28;20196;-55
2023/10/13 08:48:31;;;;;;;21.80;5.65;;;;;;;-144.30;45.60;84804.06;5072172;28;20224;-59
2023/10/13 08:51:04;;;;;;;16.52;7.07;;;;;;;-144.30;45.14;84883.59;5071986;28;20188;-60
2023/10/13 08:53:33;;;;;;;7.97;6.28;;;;;;;-144.30;45.03;84843.84;5071862;28;20608;-58
2023/10/13 08:56:05;;;;;;;14.90;6.38;;;;;;;-144.30;44.86;84859.72;5070950;28;20204;-59
2023/10/13 09:04:20;;;;;;;15.70;5.60;;;;;;;-144.30;44.32;84841.84;5091457;28;20199;-59
2023/10/13 09:06:57;;;;;;;12.15;6.45;;;;;;;-144.30;43.96;84780.22;5091783;28;20317;-58
2023/10/13 09:09:34;;;;;;;11.25;5.68;;;;;;;-144.30;43.96;84774.25;5091758;28;20710;-58
2023/10/13 09:12:08;;;;;;;6.38;5.70;;;;;;;-144.30;43.87;84800.09;5091102;28;20700;-58
2023/10/13 09:14:38;;;;;;;11.35;5.78;;;;;;;-144.30;43.77;84764.31;5091867;28;20701;-60
2023/10/13 09:17:16;;;;;;;11.05;5.82;;;;;;;-144.30;43.20;84686.81;5091325;28;20397;-59
2023/10/13 09:19:55;;;;;;;6.55;5.90;;;;;;;-144.30;43.27;84696.75;5088461;28;20226;-56
2023/10/13 09:22:27;;;;;;;13.10;6.32;;;;;;;-144.30;43.02;84702.72;5091410;28;20654;-55
2023/10/13 09:25:00;;;;;;;13.13;5.95;;;;;;;-144.30;42.66;84740.47;5091811;28;20234;-58
2023/10/13 09:27:27;;;;;;;10.45;6.07;;;;;;;-144.30;42.34;84700.72;5091370;28;20222;-59
2023/10/13 09:30:01;;;;;;;7.57;5.30;;;;;;;-144.30;42.23;84708.66;5091381;28;20195;-57
2023/10/13 09:32:28;;;;;;;10.75;5.72;;;;;;;-144.30;42.51;84690.78;5091474;28;20203;-58
2023/10/13 09:35:02;;;;;;;7.13;5.25;;;;;;;-144.30;42.07;84676.88;5091272;28;20294;-59
2023/10/13 09:37:28;;;;;;;10.45;5.70;;;;;;;-144.30;42.12;84712.66;5091421;28;20191;-59
2023/10/13 09:40:04;;;;;;;16.25;5.68;;;;;;;-144.30;41.89;84666.94;5091515;28;20291;-60
2023/10/13 09:42:34;;;;;;;9.57;5.47;;;;;;;-144.30;41.65;84700.72;5091386;28;20191;-59
2023/10/13 09:45:04;;;;;;;11.73;6.40;;;;;;;-144.30;41.16;84649.03;5091263;28;20223;-59
2023/10/13 09:47:36;;;;;;;10.57;5.97;;;;;;;-144.30;40.96;84664.94;5090888;28;20206;-59
2023/10/13 09:50:13;;;;;;;10.82;6.13;;;;;;;-144.30;40.85;84591.41;5091207;28;20199;-60
2023/10/13 09:52:41;;;;;;;10.98;6.15;;;;;;;-144.30;40.46;84615.25;5091087;28;20199;-59
2023/10/13 09:55:20;;;;;;;12.52;6.78;;;;;;;-144.30;40.42;84533.78;5091094;28;20198;-59
2023/10/13 09:57:57;;;;;;;18.55;7.57;;;;;;;-144.30;40.35;84573.53;5091133;28;20696;-60
2023/10/13 10:03:39;;;;;;;10.95;6.00;;;;;;;-144.30;40.60;84553.66;5085129;28;20199;-59
2023/10/13 10:06:06;;;;;;;13.05;6.55;;;;;;;-144.30;40.58;84555.63;5090604;28;20689;-59
2023/10/13 10:08:34;;;;;;;14.32;6.22;;;;;;;-144.30;40.29;84517.88;5090335;28;20223;-59
2023/10/13 10:11:34;;;;;;;20.65;16.73;;;;;;;-144.30;39.97;84509.94;5091195;28;20718;-58
2023/10/13 10:14:08;;;;;;;15.32;7.10;;;;;;;-144.30;39.63;84511.91;5073431;28;20294;-55
2023/10/13 10:16:46;;;;;;;13.35;6.57;;;;;;;-144.30;39.56;84513.91;5091352;28;20199;-58
2023/10/13 10:19:14;;;;;;;13.18;7.40;;;;;;;-144.30;39.65;84490.06;5070273;28;20227;-58
2023/10/13 10:21:43;;;;;;;12.63;6.93;;;;;;;-144.30;39.48;84430.44;5089792;28;20187;-57
2023/10/13 10:24:24;;;;;;;12.57;5.95;;;;;;;-144.30;40.38;84494.03;5090380;28;20580;-56
2023/10/13 10:26:54;;;;;;;14.38;7.40;;;;;;;-144.30;39.56;84396.66;5087995;28;20244;-56
2023/10/13 10:29:21;;;;;;;12.20;6.32;;;;;;;-144.30;39.33;84434.41;5089854;28;20215;-56
2023/10/13 10:31:48;;;;;;;8.13;6.25;;;;;;;-144.30;38.62;84438.38;5090790;28;20222;-56
2023/10/13 10:34:18;;;;;;;9.38;5.80;;;;;;;-144.30;38.37;84438.38;5090566;28;20199;-57
2023/10/13 10:36:48;;;;;;;10.77;5.85;;;;;;;-144.30;38.44;84400.63;5090659;28;20252;-58
2023/10/13 10:39:17;;;;;;;6.80;6.15;;;;;;;-144.30;38.22;84406.59;5090440;28;20253;-57
2023/10/13 10:41:51;;;;;;;10.60;5.47;;;;;;;-144.30;38.22;84388.69;5090382;28;20202;-56
2023/10/13 10:44:22;;;;;;;6.10;5.50;;;;;;;-144.30;38.29;84402.59;5090439;28;20191;-56
2023/10/13 10:46:57;;;;;;;10.20;6.38;;;;;;;-144.30;40.83;84438.38;5090248;28;20191;-57
2023/10/13 10:49:30;;;;;;;8.73;5.30;;;;;;;-144.30;38.31;84382.72;5090024;28;20218;-56
2023/10/13 10:52:03;;;;;;;15.45;6.70;;;;;;;-144.30;37.82;84331.06;5090222;28;20195;-56
2023/10/13 10:54:31;;;;;;;7.85;5.90;;;;;;;-144.30;37.32;84307.22;5090232;28;20199;-56
2023/10/13 10:57:10;;;;;;;10.05;6.28;;;;;;;-144.30;37.38;84319.13;5090149;28;20191;-57
2023/10/13 10:59:38;;;;;;;16.58;5.97;;;;;;;-144.30;37.00;84247.59;5089971;28;20264;-57
2023/10/13 11:02:06;;;;;;;9.98;5.75;;;;;;;-144.30;37.08;84327.09;5090093;28;20825;-56
2023/10/13 11:04:35;;;;;;;10.45;6.45;;;;;;;-144.30;37.57;84313.19;5090047;28;20592;-56
2023/10/13 11:07:01;;;;;;;10.35;5.43;;;;;;;-144.30;37.85;84335.03;5089875;28;20738;-56
2023/10/13 11:09:36;;;;;;;11.43;6.10;;;;;;;-144.30;37.73;84346.97;5089958;28;20227;-57
2023/10/13 11:12:22;;;;;;;16.45;6.32;;;;;;;-144.30;37.64;84293.31;5089803;28;20242;-58
2023/10/13 11:14:50;;;;;;;10.00;5.97;;;;;;;-144.30;37.72;84319.13;5089979;28;20191;-58
2023/10/13 11:17:25;;;;;;;9.75;6.43;;;;;;;-144.30;37.56;84225.75;5089491;28;20256;-56
2023/10/13 11:19:54;;;;;;;13.35;6.55;;;;;;;-144.30;37.38;84275.41;5094003;28;20846;-57
2023/10/13 11:22:33;;;;;;;11.57;6.05;;;;;;;-144.30;37.03;84279.38;5093915;28;20230;-57
2023/10/13 11:25:09;;;;;;;9.30;6.18;;;;;;;-144.30;36.99;84247.59;5094034;28;20268;-57
2023/10/13 11:27:55;;;;;;;11.50;7.43;;;;;;;-144.30;36.84;84281.38;5093663;28;20195;-56
2023/10/13 11:30:29;;;;;;;9.63;6.15;;;;;;;-144.30;36.67;84193.94;5091994;28;20648;-58
2023/10/13 11:33:00;;;;;;;12.13;6.05;;;;;;;-144.30;35.82;84191.94;5093818;28;20207;-59
2023/10/13 11:35:48;;;;;;;9.07;5.60;;;;;;;-144.30;36.03;84207.84;5093323;28;20199;-59
2023/10/13 11:38:25;;;;;;;12.32;7.57;;;;;;;-144.30;35.71;84136.31;5093799;28;20696;-56
2023/10/13 11:41:08;;;;;;;10.20;6.78;;;;;;;-144.30;35.60;84158.16;5093866;28;20199;-57
2023/10/13 11:43:52;;;;;;;12.77;7.18;;;;;;;-144.30;35.53;84112.47;5093864;28;20191;-56
2023/10/13 11:49:07;;;;;;;12.20;5.90;;;;;;;-144.30;35.00;84074.72;5093283;28;20222;-56
2023/10/13 11:51:38;;;;;;;8.63;5.72;;;;;;;-144.30;34.77;84025.03;5093654;28;20268;-56
2023/10/13 11:54:05;;;;;;;21.65;6.75;;;;;;;-144.30;34.30;84036.94;5093499;28;20199;-56
2023/10/13 11:56:31;;;;;;;14.40;5.85;;;;;;;-144.30;34.33;84007.16;5093325;28;20202;-57
2023/10/13 11:59:01;;;;;;;11.98;6.60;;;;;;;-144.30;34.30;84021.06;5093741;28;20195;-58
2023/10/13 12:04:34;;;;;;;10.07;6.13;;;;;;;-144.30;34.11;83945.53;5108203;27;20539;-57
2023/10/13 12:07:17;;;;;;;10.10;6.25;;;;;;;-144.30;34.14;84009.13;5107398;28;20206;-58
2023/10/13 12:10:02;;;;;;;8.50;5.97;;;;;;;-144.30;33.19;84001.19;5107936;28;20198;-57
2023/10/13 12:12:31;;;;;;;7.90;5.63;;;;;;;-144.30;32.84;83997.22;5107644;28;20200;-56
2023/10/13 12:15:09;;;;;;;13.93;5.95;;;;;;;-144.30;32.92;83979.31;5107611;28;20202;-56
2023/10/13 12:17:36;;;;;;;10.60;6.32;;;;;;;-144.30;32.77;83874.00;5107589;28;20201;-56
2023/10/13 12:20:09;;;;;;;8.35;5.47;;;;;;;-144.30;33.24;84005.16;5107510;28;20205;-58
2023/10/13 12:22:38;;;;;;;10.88;6.05;;;;;;;-144.30;33.13;84021.06;5107473;28;20721;-57
2023/10/13 12:25:18;;;;;;;6.88;5.85;;;;;;;-144.30;32.92;83981.31;5107547;28;20186;-57
2023/10/13 12:27:48;;;;;;;11.27;6.03;;;;;;;-144.30;32.55;83973.38;5107652;28;20199;-57
2023/10/13 12:30:22;;;;;;;9.18;5.80;;;;;;;-144.30;32.63;83975.34;5107434;28;20202;-57
2023/10/13 12:33:06;;;;;;;14.10;5.80;;;;;;;-144.30;32.00;83995.22;5106869;28;20282;-58
2023/10/13 12:35:44;;;;;;;5.88;5.03;;;;;;;-144.30;32.19;83987.28;5104696;28;20198;-57
2023/10/13 12:38:36;;;;;;;13.20;4.88;;;;;;;-144.30;32.10;84023.03;5106727;28;20195;-58
2023/10/13 12:49:49;;;;;;;10.02;5.28;;;;;;;-144.30;31.88;84007.16;5106872;28;20265;-57
2023/10/13 12:52:19;;;;;;;11.13;5.95;;;;;;;-144.30;32.00;83991.25;5107507;28;20203;-59
2023/10/13 12:54:58;;;;;;;8.63;5.22;;;;;;;-144.30;31.91;84015.09;5106828;28;20256;-56
2023/10/13 12:57:25;;;;;;;14.50;5.75;;;;;;;-144.30;31.98;84019.06;5086381;28;20199;-59
2023/10/13 12:59:53;;;;;;;12.80;5.15;;;;;;;-144.30;31.30;84023.03;5086729;28;20613;-60
2023/10/13 13:02:20;;;;;;;9.32;5.10;;;;;;;-144.30;31.27;84003.16;5086193;28;20224;-57
2023/10/13 13:04:53;;;;;;;9.93;5.70;;;;;;;-144.30;30.69;84023.03;5086346;28;20202;-58
2023/10/13 13:07:21;;;;;;;8.60;4.43;;;;;;;-144.30;30.75;84019.06;5086264;28;20199;-56
2023/10/13 13:09:50;;;;;;;11.93;4.70;;;;;;;-144.30;30.57;84011.13;5085973;28;20218;-57
2023/10/13 13:12:24;;;;;;;7.35;5.22;;;;;;;-144.30;30.48;84015.09;5087139;28;20199;-58
2023/10/13 13:14:55;;;;;;;4.57;3.60;;;;;;;-144.30;29.99;84029.00;5077942;28;20207;-56
2023/10/13 13:17:22;;;;;;;7.53;4.50;;;;;;;-144.30;29.75;84023.03;5072746;28;20200;-58
2023/10/13 13:19:48;;;;;;;6.05;4.60;;;;;;;-144.30;29.51;83977.34;5072639;28;20200;-57
2023/10/13 13:22:17;;;;;;;10.52;7.32;;;;;;;-144.30;29.79;84287.34;5072516;28;20287;-59
2023/10/13 13:24:50;;;;;;;5.15;4.43;;;;;;;-144.30;29.77;83983.28;5073447;28;20647;-60
2023/10/13 13:27:19;;;;;;;5.18;3.78;;;;;;;-144.30;29.40;83987.28;5073329;28;20218;-58
2023/10/13 13:29:47;;;;;;;7.85;4.85;;;;;;;-144.30;29.47;84031.00;5072864;28;20283;-62
2023/10/13 13:32:18;;;;;;;6.22;3.92;;;;;;;-144.30;29.57;84011.13;5072962;28;20195;-57
2023/10/13 13:34:54;;;;;;;8.38;4.43;;;;;;;-144.30;29.70;83995.22;5081948;28;20230;-56
2023/10/13 13:37:21;;;;;;;6.53;4.38;;;;;;;-144.30;30.19;83973.38;5092366;28;20195;-58
2023/10/13 13:39:52;;;;;;;10.48;4.50;;;;;;;-144.30;30.21;83959.44;5092190;28;20317;-57
2023/10/13 13:42:20;;;;;;;7.05;4.20;;;;;;;-144.30;29.85;83907.78;5091874;28;20287;-57